Time;durP1;ratioP1;P1;durP2;ratioP2;P2;SDS_P1;SDS_P2;PMS_P1;PMS_P2;Temp;Humidity;BMP_temperature;BMP_pressure;BME280_temperature;BME280_humidity;BME280_pressure;Samples;Min_cycle;Max_cycle;Signal;HPM_P1;HPM_P2
2022/06/06 00:02:23;;;;;;;0.80;0.80;;;16.40;99.90;;;;;;5097343;28;20044;-77
2022/06/06 00:04:49;;;;;;;0.52;0.52;;;16.30;99.90;;;;;;5097319;28;20032;-77
2022/06/06 00:07:14;;;;;;;0.70;0.70;;;16.30;99.90;;;;;;5097212;28;20404;-77
2022/06/06 00:09:40;;;;;;;0.40;0.40;;;16.20;99.90;;;;;;5097173;28;20070;-79
2022/06/06 00:12:06;;;;;;;0.60;0.60;;;16.20;99.90;;;;;;5096863;28;20052;-74
2022/06/06 00:14:32;;;;;;;3.60;1.05;;;16.10;99.90;;;;;;5096872;28;20048;-76
2022/06/06 00:16:58;;;;;;;0.40;0.40;;;16.10;99.90;;;;;;5097888;28;20040;-79
2022/06/06 00:19:24;;;;;;;0.30;0.30;;;16.10;99.90;;;;;;5097226;28;20055;-79
2022/06/06 00:21:50;;;;;;;0.40;0.40;;;15.90;99.90;;;;;;5097121;28;20086;-76
2022/06/06 00:24:16;;;;;;;0.30;0.30;;;15.80;99.90;;;;;;5096964;28;20131;-80
2022/06/06 00:26:42;;;;;;;0.30;0.30;;;15.90;99.90;;;;;;5096861;28;20131;-78
2022/06/06 00:29:09;;;;;;;0.30;0.30;;;15.90;99.90;;;;;;5096841;28;20132;-78
2022/06/06 00:37:06;;;;;;;0.30;0.30;;;15.80;99.90;;;;;;5096706;28;20087;-76
2022/06/06 00:39:33;;;;;;;0.35;0.35;;;15.80;99.90;;;;;;5096347;28;20040;-76
2022/06/06 00:41:58;;;;;;;0.40;0.40;;;15.80;99.90;;;;;;5096519;28;20044;-78
2022/06/06 00:44:32;;;;;;;0.30;0.30;;;15.80;99.90;;;;;;5096529;28;20127;-79
2022/06/06 00:47:15;;;;;;;0.30;0.30;;;15.70;99.90;;;;;;5096914;28;20098;-75
2022/06/06 00:49:48;;;;;;;0.40;0.40;;;15.80;99.90;;;;;;5096298;28;20052;-78
2022/06/06 00:52:22;;;;;;;0.30;0.30;;;15.80;99.90;;;;;;5096973;28;20055;-77
2022/06/06 00:54:50;;;;;;;0.30;0.30;;;15.70;99.90;;;;;;5096826;28;20090;-75
2022/06/06 00:57:21;;;;;;;0.40;0.40;;;15.70;99.90;;;;;;5096409;28;20078;-76
2022/06/06 00:59:47;;;;;;;2.97;0.85;;;15.70;99.90;;;;;;5095974;28;20052;-73
2022/06/06 01:02:13;;;;;;;0.30;0.30;;;15.70;99.90;;;;;;5095391;28;20294;-77
2022/06/06 01:04:41;;;;;;;1.05;1.05;;;15.70;99.90;;;;;;5096040;28;20040;-78
2022/06/06 01:07:09;;;;;;;0.40;0.40;;;15.70;99.90;;;;;;5096319;28;20048;-76
2022/06/06 01:09:36;;;;;;;0.40;0.40;;;15.70;99.90;;;;;;5096028;28;20152;-77
2022/06/06 01:12:05;;;;;;;0.50;0.50;;;15.60;99.90;;;;;;5096002;28;20044;-74
2022/06/06 01:14:42;;;;;;;4.30;0.88;;;15.60;99.90;;;;;;5096225;28;20404;-76
2022/06/06 01:17:38;;;;;;;0.30;0.30;;;15.60;99.90;;;;;;5096021;28;20048;-80
2022/06/06 01:20:20;;;;;;;0.30;0.30;;;15.60;99.90;;;;;;5096205;28;20059;-74
2022/06/06 01:23:23;;;;;;;0.63;0.63;;;15.60;99.90;;;;;;5096260;28;20076;-76
2022/06/06 01:26:03;;;;;;;0.30;0.30;;;15.60;99.90;;;;;;5096250;28;20071;-76
2022/06/06 01:29:07;;;;;;;0.30;0.30;;;15.60;99.90;;;;;;5096085;28;20044;-78
2022/06/06 01:31:36;;;;;;;0.40;0.40;;;15.60;99.90;;;;;;5095746;28;20046;-78
2022/06/06 01:34:04;;;;;;;0.30;0.30;;;15.60;99.90;;;;;;5095524;28;20048;-76
2022/06/06 01:36:32;;;;;;;0.30;0.30;;;15.60;99.90;;;;;;5095660;28;20040;-76
2022/06/06 01:39:01;;;;;;;0.55;0.55;;;15.70;99.90;;;;;;5095534;28;20405;-76
2022/06/06 01:42:08;;;;;;;0.73;0.73;;;15.80;99.90;;;;;;5095544;28;20048;-79
2022/06/06 01:44:52;;;;;;;0.73;0.73;;;15.60;99.90;;;;;;5095930;28;20052;-75
2022/06/06 01:47:27;;;;;;;0.30;0.30;;;15.60;99.90;;;;;;5095816;28;20040;-77
2022/06/06 01:49:55;;;;;;;0.40;0.40;;;15.50;99.90;;;;;;5095542;28;20044;-78
2022/06/06 01:52:22;;;;;;;0.57;0.57;;;15.50;99.90;;;;;;5095242;28;20381;-75
2022/06/06 01:54:47;;;;;;;;;;;15.50;99.90;;;;;;5095274;28;20040;-78
2022/06/06 01:57:16;;;;;;;0.30;0.30;;;15.50;99.90;;;;;;5095305;28;19931;-78
2022/06/06 01:59:42;;;;;;;0.30;0.30;;;15.40;99.90;;;;;;5095362;28;20036;-77
2022/06/06 02:02:07;;;;;;;0.47;0.47;;;15.50;99.90;;;;;;5095234;28;20051;-76
2022/06/06 02:04:33;;;;;;;0.57;0.57;;;15.40;99.90;;;;;;5095203;28;20044;-76
2022/06/06 02:06:58;;;;;;;0.97;0.90;;;15.40;99.90;;;;;;5095031;28;20130;-79
2022/06/06 02:09:26;;;;;;;0.52;0.52;;;15.40;99.90;;;;;;5093950;28;20071;-77
2022/06/06 02:11:51;;;;;;;0.50;0.50;;;15.40;99.90;;;;;;5094476;28;20047;-78
2022/06/06 02:14:17;;;;;;;0.60;0.60;;;15.40;99.90;;;;;;5095520;28;20044;-74
2022/06/06 02:16:43;;;;;;;0.83;0.83;;;15.30;99.90;;;;;;5095587;28;20052;-76
2022/06/06 02:19:11;;;;;;;0.55;0.55;;;15.30;99.90;;;;;;5094852;28;20502;-76
2022/06/06 02:21:37;;;;;;;0.77;0.65;;;15.20;99.90;;;;;;5094743;28;20044;-78
2022/06/06 02:24:03;;;;;;;0.75;0.75;;;15.20;99.90;;;;;;5093587;28;20055;-76
2022/06/06 02:26:29;;;;;;;1.38;0.77;;;15.20;99.90;;;;;;5094725;28;20040;-75
2022/06/06 02:28:55;;;;;;;0.57;0.57;;;15.10;99.90;;;;;;5094637;28;20051;-75
2022/06/06 02:31:20;;;;;;;0.30;0.30;;;15.10;99.90;;;;;;5094699;28;20048;-77
2022/06/06 02:33:46;;;;;;;0.43;0.43;;;15.00;99.90;;;;;;5094774;28;20036;-77
2022/06/06 02:36:11;;;;;;;0.70;0.70;;;15.00;99.90;;;;;;5097070;28;20042;-76
2022/06/06 02:38:37;;;;;;;0.50;0.50;;;15.10;99.90;;;;;;5099557;28;20044;-74
2022/06/06 02:41:09;;;;;;;0.73;0.60;;;15.00;99.90;;;;;;5100025;28;20086;-73
2022/06/06 02:43:40;;;;;;;0.50;0.50;;;14.90;99.90;;;;;;5100818;28;20044;-73
2022/06/06 02:46:11;;;;;;;0.88;0.85;;;14.90;99.90;;;;;;5101378;28;20048;-73
2022/06/06 02:48:37;;;;;;;1.38;1.25;;;14.90;99.90;;;;;;5101553;28;20052;-75
2022/06/06 02:51:03;;;;;;;0.52;0.52;;;14.80;99.90;;;;;;5095962;28;20040;-74
2022/06/06 02:53:30;;;;;;;0.50;0.50;;;14.80;99.90;;;;;;5100810;28;20044;-77
2022/06/06 02:55:57;;;;;;;1.83;1.30;;;14.80;99.90;;;;;;5100447;28;20488;-76
2022/06/06 02:58:24;;;;;;;0.30;0.30;;;14.70;99.90;;;;;;5099089;28;20123;-72
2022/06/06 03:01:07;;;;;;;0.88;0.80;;;14.70;99.90;;;;;;5101316;28;20047;-73
2022/06/06 03:03:34;;;;;;;0.40;0.40;;;14.60;99.90;;;;;;5101670;28;20048;-74
2022/06/06 03:06:07;;;;;;;0.60;0.60;;;14.60;99.90;;;;;;5101095;28;20086;-75
2022/06/06 03:08:48;;;;;;;0.55;0.55;;;14.50;99.90;;;;;;5098805;28;20063;-73
2022/06/06 03:11:32;;;;;;;0.50;0.50;;;14.50;99.90;;;;;;5098547;28;20098;-73
2022/06/06 03:14:09;;;;;;;1.92;0.77;;;14.50;99.90;;;;;;5099144;28;20058;-73
2022/06/06 03:23:24;;;;;;;0.70;0.70;;;14.40;99.90;;;;;;5097446;28;20056;-77
2022/06/06 03:26:12;;;;;;;1.00;0.55;;;14.40;99.90;;;;;;5099286;28;20047;-73
2022/06/06 03:29:02;;;;;;;0.68;0.60;;;14.40;99.90;;;;;;5101103;28;20090;-79
2022/06/06 03:31:27;;;;;;;0.90;0.85;;;14.40;99.90;;;;;;5098103;28;20087;-78
2022/06/06 03:34:25;;;;;;;2.03;0.93;;;14.40;99.90;;;;;;5097072;28;20088;-75
2022/06/06 03:36:59;;;;;;;0.40;0.40;;;14.40;99.90;;;;;;5082050;28;20052;-76
2022/06/06 03:39:45;;;;;;;0.30;0.30;;;14.40;99.90;;;;;;5098505;28;20075;-78
2022/06/06 03:42:14;;;;;;;0.40;0.40;;;14.30;99.90;;;;;;5097718;28;20126;-76
2022/06/06 03:44:46;;;;;;;0.40;0.40;;;14.40;99.90;;;;;;5097677;28;20044;-79
2022/06/06 03:47:31;;;;;;;0.60;0.60;;;14.30;99.90;;;;;;5097876;28;20387;-77
2022/06/06 03:50:09;;;;;;;0.57;0.57;;;14.30;99.90;;;;;;5097638;28;20070;-77
2022/06/06 03:52:40;;;;;;;0.30;0.30;;;14.30;99.90;;;;;;5098004;28;20043;-75
2022/06/06 03:55:51;;;;;;;0.30;0.30;;;14.30;99.90;;;;;;5097407;28;20071;-75
2022/06/06 03:58:20;;;;;;;0.77;0.77;;;14.30;99.90;;;;;;5086396;28;20062;-75
2022/06/06 04:00:47;;;;;;;0.40;0.40;;;14.30;99.90;;;;;;5097417;28;20097;-77
2022/06/06 04:03:14;;;;;;;0.68;0.68;;;14.30;99.90;;;;;;5097409;28;20044;-74
2022/06/06 04:05:40;;;;;;;1.10;1.00;;;14.20;99.90;;;;;;5097366;28;20127;-75
2022/06/06 04:08:08;;;;;;;0.50;0.50;;;14.20;99.90;;;;;;5097753;28;20127;-76
2022/06/06 04:10:37;;;;;;;0.35;0.35;;;14.20;99.90;;;;;;5097001;28;20411;-76
2022/06/06 04:13:20;;;;;;;0.88;0.88;;;14.20;99.90;;;;;;5097066;28;20052;-77
2022/06/06 04:15:57;;;;;;;0.43;0.43;;;14.20;99.90;;;;;;5097303;28;20059;-74
2022/06/06 04:18:26;;;;;;;0.40;0.30;;;14.20;99.90;;;;;;5096978;28;20061;-77
2022/06/06 04:21:17;;;;;;;0.80;0.80;;;14.30;99.90;;;;;;5096907;28;20547;-76
2022/06/06 04:24:05;;;;;;;0.40;0.40;;;14.20;99.90;;;;;;5097403;28;20088;-77
2022/06/06 04:26:47;;;;;;;0.40;0.40;;;14.10;99.90;;;;;;5097125;28;20044;-77
2022/06/06 04:29:34;;;;;;;0.50;0.50;;;14.20;99.90;;;;;;5096940;28;20044;-76
2022/06/06 04:32:05;;;;;;;0.30;0.30;;;14.20;99.90;;;;;;5097187;28;20048;-77
2022/06/06 04:34:45;;;;;;;0.30;0.30;;;14.10;99.90;;;;;;5096023;28;20365;-76
2022/06/06 04:37:36;;;;;;;0.75;0.75;;;14.10;99.90;;;;;;5096822;28;20492;-77
2022/06/06 04:40:09;;;;;;;1.55;0.93;;;14.10;99.90;;;;;;5093113;28;20052;-78
2022/06/06 04:42:42;;;;;;;0.50;0.50;;;14.30;99.90;;;;;;5096684;28;20048;-76
2022/06/06 04:45:16;;;;;;;0.65;0.65;;;14.10;99.90;;;;;;5096398;28;20043;-76
2022/06/06 04:47:43;;;;;;;0.30;0.30;;;14.10;99.90;;;;;;5096732;28;20152;-76
2022/06/06 04:50:12;;;;;;;0.50;0.50;;;14.10;99.90;;;;;;5096409;28;20580;-76
2022/06/06 04:52:41;;;;;;;0.85;0.70;;;14.20;99.90;;;;;;5096215;28;20066;-76
2022/06/06 04:55:09;;;;;;;0.60;0.60;;;14.10;99.90;;;;;;5096343;28;20032;-76
2022/06/06 04:57:37;;;;;;;0.40;0.40;;;14.10;99.90;;;;;;5095921;28;20514;-75
2022/06/06 05:00:06;;;;;;;1.10;0.98;;;14.10;99.90;;;;;;5096543;28;20048;-74
2022/06/06 05:02:34;;;;;;;1.17;0.68;;;14.20;99.90;;;;;;5095987;28;20048;-75
2022/06/06 05:05:00;;;;;;;0.30;0.30;;;14.10;99.90;;;;;;5096070;28;20076;-78
2022/06/06 05:07:34;;;;;;;0.63;0.63;;;14.20;99.90;;;;;;5096564;28;20047;-78
2022/06/06 05:10:24;;;;;;;0.40;0.40;;;14.20;99.90;;;;;;5096059;28;20048;-76
2022/06/06 05:13:14;;;;;;;0.40;0.40;;;14.20;99.90;;;;;;5096351;28;20138;-76
2022/06/06 05:15:55;;;;;;;1.95;0.82;;;14.30;99.90;;;;;;5095875;28;20080;-78
2022/06/06 05:18:42;;;;;;;0.50;0.50;;;14.30;99.90;;;;;;5096157;28;20051;-76
2022/06/06 05:21:35;;;;;;;0.90;0.90;;;14.30;99.90;;;;;;5095984;28;20472;-73
2022/06/06 05:24:07;;;;;;;0.65;0.65;;;14.30;99.90;;;;;;5096265;28;20404;-77
2022/06/06 05:26:43;;;;;;;0.40;0.40;;;14.30;99.90;;;;;;5095745;28;20036;-77
2022/06/06 05:29:26;;;;;;;0.63;0.63;;;14.40;99.90;;;;;;5095752;28;20091;-72
2022/06/06 05:32:08;;;;;;;0.90;0.65;;;14.40;99.90;;;;;;5095785;28;20059;-78
2022/06/06 05:34:45;;;;;;;0.57;0.57;;;14.40;99.90;;;;;;5095499;28;20056;-75
2022/06/06 05:37:23;;;;;;;;;;;14.50;99.90;;;;;;5095954;28;20518;-77
2022/06/06 05:40:16;;;;;;;1.30;1.00;;;14.60;99.90;;;;;;5095588;28;20282;-74
2022/06/06 05:42:50;;;;;;;0.60;0.57;;;14.60;99.90;;;;;;5095973;28;20043;-73
2022/06/06 05:45:58;;;;;;;0.43;0.43;;;14.70;99.90;;;;;;5095380;28;20118;-73
2022/06/06 05:48:29;;;;;;;0.68;0.60;;;14.60;99.90;;;;;;5084473;28;20114;-75
2022/06/06 05:51:25;;;;;;;1.42;1.33;;;14.60;99.90;;;;;;5095220;28;20048;-76
2022/06/06 05:54:15;;;;;;;0.30;0.30;;;14.50;99.90;;;;;;5095616;28;20048;-78
2022/06/06 05:57:18;;;;;;;0.60;0.52;;;14.60;99.90;;;;;;5094042;28;20048;-76
2022/06/06 06:00:04;;;;;;;0.57;0.57;;;14.60;99.90;;;;;;5095048;28;20451;-79
2022/06/06 06:03:00;;;;;;;2.25;1.40;;;14.60;99.90;;;;;;5094893;28;20480;-77
2022/06/06 06:05:45;;;;;;;0.40;0.40;;;14.60;99.90;;;;;;5094986;28;20509;-79
2022/06/06 06:08:23;;;;;;;0.88;0.88;;;14.60;99.90;;;;;;5095416;28;20113;-72
2022/06/06 06:10:54;;;;;;;1.10;0.88;;;14.70;99.90;;;;;;5095238;28;20052;-75
2022/06/06 06:13:40;;;;;;;0.90;0.90;;;14.60;99.90;;;;;;5094809;28;20055;-78
2022/06/06 06:16:08;;;;;;;1.05;1.05;;;14.70;99.90;;;;;;5094718;28;20131;-74
2022/06/06 06:18:46;;;;;;;1.48;1.38;;;14.80;99.90;;;;;;5094610;28;20055;-75
2022/06/06 06:21:33;;;;;;;1.63;0.88;;;14.90;99.90;;;;;;5094694;28;20131;-75
2022/06/06 06:24:14;;;;;;;0.50;0.50;;;15.10;99.90;;;;;;5094753;28;20127;-79
2022/06/06 06:26:41;;;;;;;0.30;0.30;;;15.40;99.90;;;;;;5094608;28;20051;-78
2022/06/06 06:29:09;;;;;;;1.05;0.95;;;15.70;99.90;;;;;;5094590;28;20044;-77
2022/06/06 06:32:18;;;;;;;10.95;1.33;;;15.80;99.90;;;;;;5094482;28;20131;-79
2022/06/06 06:35:02;;;;;;;0.50;0.40;;;16.20;99.90;;;;;;5094373;28;20083;-75
2022/06/06 06:37:36;;;;;;;0.40;0.40;;;16.50;99.90;;;;;;5094777;28;20152;-78
2022/06/06 06:40:28;;;;;;;0.40;0.40;;;16.60;99.90;;;;;;5093193;28;20048;-75
2022/06/06 06:43:10;;;;;;;0.30;0.30;;;16.70;99.90;;;;;;5094288;28;20052;-79
2022/06/06 06:45:44;;;;;;;0.60;0.60;;;16.80;99.90;;;;;;5094959;28;20063;-74
2022/06/06 06:48:23;;;;;;;0.30;0.30;;;16.90;99.90;;;;;;5094301;28;20047;-78
2022/06/06 06:51:11;;;;;;;0.30;0.30;;;17.00;99.90;;;;;;5094479;28;20040;-76
2022/06/06 06:53:54;;;;;;;0.60;0.60;;;17.00;99.90;;;;;;5094086;28;20614;-76
2022/06/06 06:56:38;;;;;;;0.82;0.73;;;16.90;99.90;;;;;;5093542;28;20128;-78
2022/06/06 06:59:41;;;;;;;0.63;0.60;;;16.80;99.90;;;;;;5094311;28;20062;-76
2022/06/06 07:09:11;;;;;;;0.30;0.30;;;16.30;99.90;;;;;;5093138;28;20108;-77
2022/06/06 07:11:48;;;;;;;1.38;1.00;;;16.20;99.90;;;;;;5093958;28;20043;-73
2022/06/06 07:14:22;;;;;;;;;;;16.20;99.90;;;;;;5094289;28;20052;-75
2022/06/06 07:16:53;;;;;;;0.50;0.50;;;16.20;99.90;;;;;;5093863;28;20363;-77
2022/06/06 07:19:32;;;;;;;0.30;0.30;;;16.20;99.90;;;;;;5093903;28;20123;-76
2022/06/06 07:22:00;;;;;;;0.40;0.40;;;16.20;99.90;;;;;;5093825;28;20043;-77
2022/06/06 07:24:28;;;;;;;1.33;1.23;;;16.10;99.90;;;;;;5093801;28;20085;-75
2022/06/06 07:26:56;;;;;;;49.13;2.72;;;16.10;99.90;;;;;;5093724;28;20063;-78
2022/06/06 07:29:22;;;;;;;0.85;0.85;;;16.30;99.90;;;;;;5093746;28;20477;-77
2022/06/06 07:31:55;;;;;;;1.13;1.03;;;16.40;99.90;;;;;;5093802;28;20055;-74
2022/06/06 07:34:50;;;;;;;0.95;0.88;;;16.70;99.90;;;;;;5093760;28;20058;-74
2022/06/06 07:37:37;;;;;;;2.85;0.95;;;16.90;99.90;;;;;;5093809;28;20040;-77
2022/06/06 07:40:34;;;;;;;0.65;0.60;;;17.10;99.90;;;;;;5094193;28;20040;-75
2022/06/06 07:43:07;;;;;;;5.32;1.27;;;17.30;99.90;;;;;;5093885;28;20125;-76
2022/06/06 07:45:44;;;;;;;0.50;0.50;;;17.30;99.90;;;;;;5093707;28;20055;-75
2022/06/06 07:48:37;;;;;;;3.53;2.05;;;17.10;99.90;;;;;;5093721;28;20048;-74
2022/06/06 07:51:12;;;;;;;0.68;0.52;;;17.00;99.90;;;;;;5093354;28;20499;-75
2022/06/06 07:53:53;;;;;;;0.55;0.55;;;16.80;99.90;;;;;;5093503;28;20048;-75
2022/06/06 07:56:32;;;;;;;1.15;0.93;;;16.60;99.90;;;;;;5093324;28;20051;-73
2022/06/06 07:59:40;;;;;;;0.55;0.50;;;16.80;99.90;;;;;;5093520;28;20051;-75
2022/06/06 08:02:25;;;;;;;0.30;0.30;;;17.20;99.90;;;;;;5093581;28;20044;-76
2022/06/06 08:05:05;;;;;;;1.25;0.52;;;17.60;99.90;;;;;;5093896;28;20048;-75
2022/06/06 08:07:47;;;;;;;0.85;0.77;;;17.70;99.90;;;;;;5094142;28;20503;-75
2022/06/06 08:10:19;;;;;;;0.50;0.50;;;17.90;99.90;;;;;;5097268;28;20060;-76
2022/06/06 08:13:12;;;;;;;0.85;0.82;;;18.30;99.90;;;;;;5097051;28;20562;-75
2022/06/06 08:15:44;;;;;;;0.55;0.55;;;18.40;99.90;;;;;;5097131;28;20400;-74
2022/06/06 08:18:45;;;;;;;0.50;0.50;;;18.70;99.90;;;;;;5097117;28;20090;-76
2022/06/06 08:21:36;;;;;;;1.17;0.45;;;18.90;99.90;;;;;;5097105;28;20472;-77
2022/06/06 08:24:06;;;;;;;0.30;0.30;;;19.00;99.90;;;;;;5097407;28;20065;-79
2022/06/06 08:26:37;;;;;;;0.63;0.60;;;19.10;99.90;;;;;;5096831;28;20067;-72
2022/06/06 08:29:05;;;;;;;0.40;0.40;;;19.20;99.90;;;;;;5096032;28;20043;-76
2022/06/06 08:31:31;;;;;;;1.30;1.20;;;19.20;99.90;;;;;;5095957;28;20449;-74
2022/06/06 08:33:57;;;;;;;0.40;0.40;;;19.10;99.90;;;;;;5096684;28;20127;-76
2022/06/06 08:36:56;;;;;;;0.50;0.50;;;18.90;99.90;;;;;;5096632;28;20048;-78
2022/06/06 08:39:47;;;;;;;1.65;1.55;;;18.90;99.90;;;;;;5024747;28;20053;-74
2022/06/06 08:42:23;;;;;;;0.30;0.30;;;18.80;99.90;;;;;;5096614;28;20051;-74
2022/06/06 08:45:10;;;;;;;2.50;1.05;;;18.90;99.90;;;;;;5096383;28;20047;-78
2022/06/06 08:48:02;;;;;;;0.30;0.30;;;18.90;99.90;;;;;;5096535;28;20044;-76
2022/06/06 08:50:53;;;;;;;0.30;0.30;;;18.90;99.90;;;;;;5096559;28;20048;-75
2022/06/06 08:53:48;;;;;;;0.52;0.40;;;19.10;99.90;;;;;;5096358;28;20047;-76
2022/06/06 08:56:37;;;;;;;0.30;0.30;;;19.30;99.90;;;;;;5096172;28;20134;-76
2022/06/06 08:59:30;;;;;;;0.30;0.30;;;19.50;99.90;;;;;;5096220;28;20092;-73
2022/06/06 09:02:34;;;;;;;0.30;0.30;;;19.60;99.90;;;;;;5096694;28;20381;-75
2022/06/06 09:05:15;;;;;;;0.30;0.30;;;19.80;99.90;;;;;;5096330;28;20112;-77
2022/06/06 09:07:58;;;;;;;0.20;0.20;;;19.90;99.90;;;;;;5096916;28;20092;-76
2022/06/06 09:10:42;;;;;;;0.30;0.30;;;19.90;99.90;;;;;;5096049;28;20052;-75
2022/06/06 09:13:14;;;;;;;0.30;0.30;;;19.90;99.90;;;;;;5096178;28;20067;-78
2022/06/06 09:15:40;;;;;;;0.30;0.30;;;19.80;99.90;;;;;;5095861;28;20052;-75
2022/06/06 09:18:33;;;;;;;0.30;0.30;;;19.80;99.90;;;;;;5095941;28;20062;-75
2022/06/06 09:21:38;;;;;;;0.30;0.30;;;19.70;99.90;;;;;;5094509;28;20132;-75
2022/06/06 09:25:00;;;;;;;0.25;0.25;;;19.80;99.90;;;;;;5080786;28;20143;-76
2022/06/06 09:28:03;;;;;;;0.30;0.30;;;19.70;99.90;;;;;;5050558;28;20060;-75
2022/06/06 09:31:06;;;;;;;0.30;0.30;;;19.50;99.90;;;;;;5095631;28;20051;-72
2022/06/06 09:33:43;;;;;;;0.30;0.30;;;19.80;99.90;;;;;;5095666;28;20051;-75
2022/06/06 09:36:14;;;;;;;0.32;0.32;;;20.10;99.90;;;;;;5095463;28;20036;-75
2022/06/06 09:38:43;;;;;;;0.82;0.50;;;20.00;99.90;;;;;;5095579;28;20134;-76
2022/06/06 09:41:17;;;;;;;0.30;0.30;;;20.00;99.90;;;;;;5095397;28;20055;-76
2022/06/06 09:44:22;;;;;;;0.90;0.40;;;20.20;99.90;;;;;;5095952;28;20048;-75
2022/06/06 09:47:02;;;;;;;0.52;0.50;;;20.10;99.90;;;;;;5050806;28;20063;-76
2022/06/06 09:49:44;;;;;;;0.30;0.30;;;19.70;99.90;;;;;;5095327;28;20051;-74
2022/06/06 09:52:56;;;;;;;0.30;0.30;;;19.90;99.90;;;;;;5095346;28;20121;-76
2022/06/06 10:01:57;;;;;;;0.30;0.30;;;19.70;99.90;;;;;;5095091;28;20048;-74
2022/06/06 10:04:59;;;;;;;0.30;0.30;;;19.50;99.90;;;;;;5088003;28;20063;-76
2022/06/06 10:07:27;;;;;;;0.20;0.20;;;19.70;99.90;;;;;;5095130;28;20051;-76
2022/06/06 10:09:52;;;;;;;0.30;0.30;;;19.90;99.90;;;;;;5094584;28;20214;-77
2022/06/06 10:12:30;;;;;;;0.30;0.30;;;20.10;99.90;;;;;;5094630;28;20488;-76
2022/06/06 10:15:26;;;;;;;0.30;0.30;;;20.00;99.90;;;;;;5094714;28;20135;-77
2022/06/06 10:18:16;;;;;;;0.30;0.30;;;20.10;99.90;;;;;;5095015;28;20136;-73
2022/06/06 10:21:02;;;;;;;9.38;0.63;;;20.10;99.90;;;;;;5057047;28;20480;-74
2022/06/06 10:23:46;;;;;;;0.20;0.20;;;20.30;99.90;;;;;;5094803;28;20169;-73
2022/06/06 10:26:27;;;;;;;0.40;0.40;;;20.30;99.90;;;;;;5094580;28;20051;-74
2022/06/06 10:29:27;;;;;;;0.40;0.40;;;20.50;99.90;;;;;;5094418;28;20094;-75
2022/06/06 10:32:13;;;;;;;0.30;0.30;;;20.70;99.90;;;;;;5093800;28;20048;-78
2022/06/06 10:34:56;;;;;;;0.30;0.30;;;20.60;99.90;;;;;;5094443;28;20054;-75
2022/06/06 10:37:57;;;;;;;0.30;0.30;;;20.60;99.90;;;;;;5093375;28;20131;-76
2022/06/06 10:40:47;;;;;;;0.47;0.47;;;20.60;99.90;;;;;;5094520;28;20528;-74
2022/06/06 10:43:22;;;;;;;0.30;0.30;;;20.40;99.90;;;;;;5094512;28;20051;-77
2022/06/06 10:46:37;;;;;;;0.40;0.40;;;20.40;99.90;;;;;;5094195;28;20112;-76
2022/06/06 10:49:44;;;;;;;0.20;0.20;;;20.50;99.90;;;;;;5082330;28;20071;-75
2022/06/06 10:52:46;;;;;;;0.40;0.40;;;20.50;99.90;;;;;;5093905;28;20484;-75
2022/06/06 10:55:43;;;;;;;0.30;0.30;;;20.80;99.90;;;;;;5094414;28;20066;-78
2022/06/06 10:58:18;;;;;;;0.30;0.30;;;20.70;99.90;;;;;;5094099;28;20048;-78
2022/06/06 11:01:16;;;;;;;0.30;0.30;;;20.70;99.90;;;;;;5094673;28;20048;-78
2022/06/06 11:03:48;;;;;;;0.30;0.30;;;20.90;99.90;;;;;;5093882;28;20057;-77
2022/06/06 11:06:44;;;;;;;0.30;0.30;;;20.80;99.90;;;;;;5093867;28;20052;-78
2022/06/06 11:09:26;;;;;;;0.20;0.20;;;20.70;99.90;;;;;;5093610;28;20491;-78
2022/06/06 11:12:29;;;;;;;0.20;0.20;;;20.70;99.90;;;;;;5094060;28;20392;-78
2022/06/06 11:14:57;;;;;;;0.30;0.30;;;20.40;99.90;;;;;;5093924;28;20044;-74
2022/06/06 11:17:39;;;;;;;0.30;0.30;;;20.30;99.90;;;;;;5093422;28;20518;-74
2022/06/06 11:20:39;;;;;;;1.95;1.23;;;20.20;99.90;;;;;;5094260;28;20070;-74
2022/06/06 11:23:19;;;;;;;0.40;0.30;;;20.20;99.90;;;;;;5087198;28;20051;-73
2022/06/06 11:26:35;;;;;;;0.30;0.30;;;20.00;99.90;;;;;;5094308;28;20490;-75
2022/06/06 11:29:22;;;;;;;0.40;0.40;;;19.80;99.90;;;;;;5093804;28;20430;-75
2022/06/06 11:32:12;;;;;;;0.20;0.20;;;19.60;99.90;;;;;;5092536;28;20036;-76
2022/06/06 11:34:47;;;;;;;0.82;0.82;;;19.50;99.90;;;;;;5093678;28;20075;-77
2022/06/06 11:37:34;;;;;;;0.30;0.30;;;19.40;99.90;;;;;;5093883;28;20054;-73
2022/06/06 11:40:18;;;;;;;0.30;0.30;;;19.60;99.90;;;;;;5093722;28;20101;-77
2022/06/06 11:43:09;;;;;;;0.40;0.40;;;20.00;99.90;;;;;;5094919;28;20394;-77
2022/06/06 11:45:47;;;;;;;0.30;0.30;;;20.10;99.90;;;;;;5097854;28;20122;-75
2022/06/06 11:48:51;;;;;;;0.20;0.20;;;20.10;99.90;;;;;;5097557;28;20052;-74
2022/06/06 11:51:56;;;;;;;0.20;0.20;;;20.10;99.90;;;;;;5073914;28;20056;-77
2022/06/06 11:54:55;;;;;;;0.20;0.20;;;20.00;99.90;;;;;;5096681;28;20138;-75
2022/06/06 11:57:47;;;;;;;0.20;0.20;;;19.90;99.90;;;;;;5097898;28;20438;-75
2022/06/06 12:00:43;;;;;;;0.30;0.30;;;19.70;99.90;;;;;;5097328;28;20387;-76
2022/06/06 12:03:57;;;;;;;0.20;0.20;;;19.50;99.90;;;;;;5097339;28;20040;-77
2022/06/06 12:06:41;;;;;;;0.20;0.20;;;19.40;99.90;;;;;;5097361;28;20048;-75
2022/06/06 12:09:12;;;;;;;0.40;0.40;;;19.10;99.90;;;;;;5097175;28;20194;-76
2022/06/06 12:11:52;;;;;;;0.30;0.30;;;18.90;99.90;;;;;;5097189;28;20069;-75
2022/06/06 12:14:53;;;;;;;0.30;0.30;;;18.80;99.90;;;;;;5097101;28;20052;-75
2022/06/06 12:17:22;;;;;;;0.20;0.20;;;18.70;99.90;;;;;;5097234;28;20122;-76
2022/06/06 12:20:02;;;;;;;0.55;0.50;;;18.60;99.90;;;;;;5096983;28;20437;-76
2022/06/06 12:22:53;;;;;;;0.30;0.30;;;18.70;99.90;;;;;;5097691;28;20051;-79
2022/06/06 12:25:39;;;;;;;0.30;0.30;;;19.10;99.90;;;;;;5097229;28;20387;-75
2022/06/06 12:28:25;;;;;;;0.20;0.20;;;19.50;99.90;;;;;;5097040;28;20395;-76
2022/06/06 12:31:18;;;;;;;0.30;0.30;;;19.90;99.90;;;;;;5097394;28;20088;-76
2022/06/06 12:33:58;;;;;;;0.30;0.30;;;19.90;99.90;;;;;;5096937;28;20060;-77
2022/06/06 12:36:56;;;;;;;0.20;0.20;;;19.80;99.90;;;;;;5096957;28;20109;-77
2022/06/06 12:39:43;;;;;;;5.75;1.15;;;19.50;99.90;;;;;;5096798;28;20484;-76
2022/06/06 12:42:30;;;;;;;0.30;0.30;;;18.60;99.90;;;;;;5096652;28;20054;-80
2022/06/06 12:45:10;;;;;;;0.20;0.20;;;18.30;99.90;;;;;;5096487;28;20132;-76
2022/06/06 12:47:57;;;;;;;0.30;0.30;;;18.20;99.90;;;;;;5096404;28;20044;-76
2022/06/06 12:50:46;;;;;;;0.30;0.30;;;18.20;99.90;;;;;;5096660;28;20059;-75
2022/06/06 12:53:12;;;;;;;0.30;0.30;;;18.20;99.90;;;;;;5096397;28;20082;-74
2022/06/06 12:56:25;;;;;;;0.30;0.30;;;18.20;99.90;;;;;;5095409;28;20044;-78
2022/06/06 12:59:24;;;;;;;0.30;0.30;;;18.30;99.90;;;;;;5096307;28;20297;-78
2022/06/06 13:02:15;;;;;;;0.30;0.30;;;18.20;99.90;;;;;;5096208;28;20131;-73
2022/06/06 13:05:14;;;;;;;0.40;0.40;;;18.40;99.90;;;;;;5096158;28;20109;-78
2022/06/06 13:07:57;;;;;;;;;;;18.30;99.90;;;;;;5096881;28;20040;-74
2022/06/06 13:11:00;;;;;;;0.30;0.30;;;18.30;99.90;;;;;;5096311;28;19920;-77
2022/06/06 13:14:01;;;;;;;0.30;0.30;;;18.30;99.90;;;;;;5096079;28;20066;-76
2022/06/06 13:17:05;;;;;;;0.20;0.20;;;18.20;99.90;;;;;;5081173;28;20052;-77
2022/06/06 13:19:40;;;;;;;0.30;0.30;;;18.00;99.90;;;;;;5096057;28;20048;-76
2022/06/06 13:22:30;;;;;;;0.30;0.30;;;18.10;99.90;;;;;;5095877;28;20035;-77
2022/06/06 13:25:27;;;;;;;0.30;0.30;;;18.10;99.90;;;;;;5096107;28;20138;-78
2022/06/06 13:27:57;;;;;;;0.40;0.40;;;18.30;99.90;;;;;;5096186;28;20048;-74
2022/06/06 13:30:36;;;;;;;0.80;0.52;;;18.40;99.90;;;;;;5096001;28;20093;-73
2022/06/06 13:33:23;;;;;;;0.20;0.20;;;18.30;99.90;;;;;;5095657;28;20044;-76
2022/06/06 13:36:07;;;;;;;0.20;0.20;;;18.30;99.90;;;;;;5096022;28;20050;-73
2022/06/06 13:38:46;;;;;;;0.30;0.30;;;18.40;99.90;;;;;;5095760;28;20131;-74
2022/06/06 13:41:39;;;;;;;0.30;0.30;;;18.50;99.90;;;;;;5095617;28;20056;-73
2022/06/06 13:44:25;;;;;;;0.30;0.30;;;18.60;99.90;;;;;;5095494;28;20089;-74
2022/06/06 13:47:04;;;;;;;0.30;0.30;;;18.70;99.90;;;;;;5095464;28;20048;-77
2022/06/06 13:50:01;;;;;;;0.20;0.20;;;18.70;99.90;;;;;;5095460;28;20135;-75
2022/06/06 13:52:52;;;;;;;0.30;0.30;;;18.70;99.90;;;;;;5095807;28;20040;-73
2022/06/06 13:55:33;;;;;;;0.30;0.30;;;18.50;99.90;;;;;;5095178;28;20499;-75
2022/06/06 13:58:02;;;;;;;0.30;0.30;;;18.40;99.90;;;;;;5095234;28;20051;-74
2022/06/06 14:00:38;;;;;;;0.40;0.40;;;18.40;99.90;;;;;;5095159;28;20040;-76
2022/06/06 14:03:39;;;;;;;0.30;0.30;;;18.30;99.90;;;;;;5095533;28;20052;-73
2022/06/06 14:06:34;;;;;;;0.30;0.30;;;18.30;99.90;;;;;;5063770;28;20048;-75
2022/06/06 14:09:00;;;;;;;0.30;0.30;;;18.20;99.90;;;;;;5095106;28;20400;-75
2022/06/06 14:11:44;;;;;;;0.30;0.30;;;17.90;99.90;;;;;;5095090;28;20052;-76
2022/06/06 14:14:13;;;;;;;0.50;0.50;;;17.80;99.90;;;;;;5094881;28;20051;-76
2022/06/06 14:16:49;;;;;;;0.32;0.32;;;17.70;99.90;;;;;;5094800;28;20048;-74
2022/06/06 14:19:22;;;;;;;0.30;0.30;;;17.40;99.90;;;;;;5094828;28;20420;-75
2022/06/06 14:22:01;;;;;;;0.25;0.25;;;17.20;99.90;;;;;;5095111;28;20059;-75
2022/06/06 14:24:30;;;;;;;0.30;0.30;;;17.20;99.90;;;;;;5094661;28;20461;-79